Time;durP1;ratioP1;P1;durP2;ratioP2;P2;SDS_P1;SDS_P2;PMS_P1;PMS_P2;Temp;Humidity;BMP_temperature;BMP_pressure;BME280_temperature;BME280_humidity;BME280_pressure;Samples;Min_cycle;Max_cycle;Signal;HPM_P1;HPM_P2
2024/01/15 00:01:17;;;;;;;5.57;1.02;;;;;;;0.62;100.00;100024.69;5040052;28;20063;-71
2024/01/15 00:04:03;;;;;;;2.85;0.95;;;;;;;0.63;100.00;100011.63;5044625;28;20048;-71
2024/01/15 00:06:49;;;;;;;4.63;1.10;;;;;;;0.63;100.00;100011.63;5053718;28;20608;-71
2024/01/15 00:09:35;;;;;;;6.82;1.10;;;;;;;0.64;100.00;100008.13;5044351;28;20028;-71
2024/01/15 00:12:21;;;;;;;6.50;1.27;;;;;;;0.68;100.00;99998.53;5055362;28;20039;-72
2024/01/15 00:15:09;;;;;;;1.55;1.10;;;;;;;0.71;100.00;99990.63;5041759;28;20105;-72
2024/01/15 00:17:55;;;;;;;5.63;1.20;;;;;;;0.74;100.00;100000.16;5054494;28;20728;-70
2024/01/15 00:20:41;;;;;;;6.00;1.20;;;;;;;0.75;100.00;99988.81;5057754;28;20079;-71
2024/01/15 00:23:27;;;;;;;1.73;0.90;;;;;;;0.81;100.00;99993.94;5057338;28;20064;-70
2024/01/15 00:26:13;;;;;;;9.57;1.60;;;;;;;0.86;100.00;99984.28;5055766;28;20036;-70
2024/01/15 00:28:58;;;;;;;11.93;1.30;;;;;;;0.93;100.00;99975.47;5054706;28;20043;-70
2024/01/15 00:31:44;;;;;;;8.20;1.25;;;;;;;0.93;100.00;99972.84;5050004;28;20689;-70
2024/01/15 00:34:30;;;;;;;6.18;1.10;;;;;;;0.95;100.00;99967.63;5053825;28;20975;-69
2024/01/15 00:37:16;;;;;;;4.95;1.00;;;;;;;0.97;100.00;99967.59;5039805;28;20440;-69
2024/01/15 00:40:01;;;;;;;11.10;1.55;;;;;;;0.98;100.00;99961.47;5056374;28;20553;-70
2024/01/15 00:42:47;;;;;;;8.98;1.48;;;;;;;0.95;100.00;99951.97;5010495;28;20075;-70
2024/01/15 00:45:33;;;;;;;3.72;1.20;;;;;;;0.92;100.00;99949.41;5035410;28;20711;-70
2024/01/15 00:48:19;;;;;;;6.78;1.27;;;;;;;0.98;100.00;99953.66;5053687;28;20040;-71
2024/01/15 00:51:05;;;;;;;7.32;1.30;;;;;;;1.07;100.00;100016.03;5051772;28;20056;-71
2024/01/15 00:53:51;;;;;;;1.33;0.85;;;;;;;0.94;100.00;100005.00;5042645;28;20071;-72
2024/01/15 00:56:37;;;;;;;2.78;0.70;;;;;;;0.67;100.00;100005.47;5053533;28;20127;-72
2024/01/15 00:59:25;;;;;;;1.27;0.60;;;;;;;0.47;100.00;100002.34;5047954;28;20037;-72
2024/01/15 01:02:11;;;;;;;3.17;0.63;;;;;;;0.36;100.00;99994.72;5050635;28;20094;-73
2024/01/15 01:04:56;;;;;;;2.30;0.88;;;;;;;0.28;100.00;99994.00;5054571;28;20111;-72
2024/01/15 01:07:42;;;;;;;1.33;0.70;;;;;;;0.23;100.00;99988.88;5050774;28;20032;-73
2024/01/15 01:10:28;;;;;;;5.30;0.70;;;;;;;0.18;100.00;99981.13;5037536;28;20052;-73
2024/01/15 01:13:14;;;;;;;4.88;1.00;;;;;;;0.16;100.00;99979.44;5050169;28;20044;-73
2024/01/15 01:16:00;;;;;;;5.50;0.90;;;;;;;0.17;100.00;99947.31;5018551;28;20032;-72
2024/01/15 01:18:48;;;;;;;6.40;0.90;;;;;;;0.18;100.00;99938.59;5033977;28;20400;-72
2024/01/15 01:21:34;;;;;;;4.68;0.75;;;;;;;0.25;100.00;99922.00;5051534;28;20240;-72
2024/01/15 01:24:20;;;;;;;2.38;0.88;;;;;;;0.33;100.00;99942.69;5037012;28;20034;-72
2024/01/15 01:27:05;;;;;;;2.33;1.13;;;;;;;0.37;100.00;99941.75;5050354;28;20037;-73
2024/01/15 01:29:51;;;;;;;3.42;1.13;;;;;;;0.43;100.00;99948.63;5049491;28;20124;-72
2024/01/15 01:32:37;;;;;;;12.40;1.42;;;;;;;0.49;100.00;99949.34;5050609;28;20040;-73
2024/01/15 01:35:23;;;;;;;2.95;0.70;;;;;;;0.49;100.00;99949.34;5035888;28;20036;-73
2024/01/15 01:38:08;;;;;;;5.05;1.00;;;;;;;0.48;100.00;99950.25;5050842;28;20451;-73
2024/01/15 01:40:54;;;;;;;3.88;1.00;;;;;;;0.46;100.00;99944.22;5051518;28;20045;-73
2024/01/15 01:43:40;;;;;;;3.47;1.13;;;;;;;0.51;100.00;99931.09;5038039;28;20439;-74
2024/01/15 01:46:27;;;;;;;5.30;1.52;;;;;;;0.52;100.00;99930.19;5051999;28;20060;-74
2024/01/15 01:49:13;;;;;;;2.45;1.00;;;;;;;0.54;100.00;99934.50;5039566;28;20032;-74
2024/01/15 01:52:01;;;;;;;6.55;1.23;;;;;;;0.56;100.00;99938.81;5036477;28;20052;-74
2024/01/15 01:54:47;;;;;;;4.28;1.58;;;;;;;0.54;100.00;99929.28;5029930;28;20029;-74
2024/01/15 01:57:34;;;;;;;4.70;1.15;;;;;;;0.54;100.00;99912.78;5052442;28;20078;-74
2024/01/15 02:00:20;;;;;;;6.60;1.50;;;;;;;0.53;100.00;99903.25;5053029;28;20089;-74
2024/01/15 02:03:06;;;;;;;5.47;0.90;;;;;;;0.52;100.00;99904.16;5027597;28;20039;-74
2024/01/15 02:05:52;;;;;;;5.90;1.45;;;;;;;0.50;100.00;99909.38;5034783;28;20041;-74
2024/01/15 02:08:38;;;;;;;7.07;1.10;;;;;;;0.46;100.00;99902.53;5049628;28;20487;-74
2024/01/15 02:11:24;;;;;;;5.25;1.38;;;;;;;0.44;100.00;99911.25;5033849;28;20047;-74
2024/01/15 02:14:10;;;;;;;11.25;1.55;;;;;;;0.44;100.00;99926.88;5035028;28;20092;-74
2024/01/15 02:16:56;;;;;;;6.40;1.20;;;;;;;0.45;100.00;99957.25;5051177;28;20090;-74
2024/01/15 02:19:44;;;;;;;5.32;0.80;;;;;;;0.46;100.00;99933.78;5053540;28;20046;-74
2024/01/15 02:22:30;;;;;;;7.95;1.15;;;;;;;0.44;100.00;99932.09;5050853;28;20099;-74
2024/01/15 02:25:16;;;;;;;5.90;1.48;;;;;;;0.42;100.00;99941.69;5050150;28;20560;-73
2024/01/15 02:28:02;;;;;;;12.20;1.88;;;;;;;0.42;100.00;99926.06;5029243;28;20434;-73
2024/01/15 02:30:48;;;;;;;5.47;1.50;;;;;;;0.45;100.00;99924.25;5047955;28;20101;-73
2024/01/15 02:33:34;;;;;;;4.20;1.10;;;;;;;0.50;100.00;99913.75;5049834;28;20383;-73
2024/01/15 02:36:20;;;;;;;6.15;1.52;;;;;;;0.54;100.00;99916.25;5050254;28;20062;-73
2024/01/15 02:39:05;;;;;;;8.95;2.30;;;;;;;0.54;100.00;99911.06;5049521;28;20052;-73
2024/01/15 02:41:51;;;;;;;4.25;1.13;;;;;;;0.56;100.00;99920.59;5050472;28;21958;-74
2024/01/15 02:44:37;;;;;;;9.55;1.55;;;;;;;0.55;100.00;99953.59;5052853;28;20033;-73
2024/01/15 02:47:23;;;;;;;7.68;1.10;;;;;;;0.57;100.00;99946.63;5054427;28;20033;-72
2024/01/15 02:50:09;;;;;;;1.75;0.75;;;;;;;0.51;100.00;99926.75;5036925;28;20040;-74
2024/01/15 02:52:54;;;;;;;3.05;1.20;;;;;;;0.48;100.00;99933.78;5050700;28;20117;-74
2024/01/15 02:55:40;;;;;;;7.38;0.95;;;;;;;0.46;100.00;99925.97;5037910;28;20033;-74
2024/01/15 02:58:26;;;;;;;3.92;1.40;;;;;;;0.46;100.00;99922.50;5051071;28;20087;-74
2024/01/15 03:01:11;;;;;;;3.20;0.98;;;;;;;0.48;100.00;99928.56;5036947;28;20048;-74
2024/01/15 03:03:57;;;;;;;5.05;1.10;;;;;;;0.50;100.00;99919.81;5052711;28;20041;-75
2024/01/15 03:06:43;;;;;;;5.43;0.93;;;;;;;0.54;100.00;99915.38;5050316;28;20041;-75
2024/01/15 03:09:29;;;;;;;3.15;0.75;;;;;;;0.56;100.00;99913.63;5050603;28;20048;-73
2024/01/15 03:12:15;;;;;;;2.95;1.00;;;;;;;0.54;100.00;99910.19;5053789;28;20124;-74
2024/01/15 03:15:01;;;;;;;7.55;1.42;;;;;;;0.48;100.00;99916.38;5053232;28;20043;-74
2024/01/15 03:17:46;;;;;;;4.10;1.52;;;;;;;0.45;100.00;99910.38;5052844;28;20112;-74
2024/01/15 03:20:32;;;;;;;4.75;1.40;;;;;;;0.43;100.00;99920.81;5048154;28;20028;-74
2024/01/15 03:23:18;;;;;;;4.57;1.00;;;;;;;0.39;100.00;99922.59;5050781;28;20535;-75
2024/01/15 03:26:04;;;;;;;5.45;1.20;;;;;;;0.35;100.00;99920.97;5046901;28;20526;-74
2024/01/15 03:28:52;;;;;;;4.55;1.30;;;;;;;0.35;100.00;99939.19;5051265;28;20047;-75
2024/01/15 03:31:38;;;;;;;10.77;1.65;;;;;;;0.37;100.00;99940.00;5050366;28;20041;-74
2024/01/15 03:34:24;;;;;;;6.20;1.23;;;;;;;0.41;100.00;99935.59;5051713;28;20067;-75
2024/01/15 03:37:10;;;;;;;7.28;2.65;;;;;;;0.46;100.00;99939.00;5052880;28;20047;-74
2024/01/15 03:39:55;;;;;;;3.83;1.27;;;;;;;0.56;100.00;99928.41;5053393;28;20041;-74
2024/01/15 03:42:41;;;;;;;9.85;1.42;;;;;;;0.61;100.00;99943.03;5035370;28;20125;-74
2024/01/15 03:45:27;;;;;;;4.97;1.20;;;;;;;0.69;100.00;99949.88;5053048;28;20043;-75
2024/01/15 03:48:13;;;;;;;4.93;1.02;;;;;;;0.76;100.00;99951.50;5052555;28;20042;-74
2024/01/15 03:50:59;;;;;;;7.00;1.35;;;;;;;0.80;100.00;99950.53;5037953;28;20435;-74
2024/01/15 03:53:45;;;;;;;7.85;1.48;;;;;;;0.80;100.00;99943.56;5051667;28;20032;-75
2024/01/15 03:56:31;;;;;;;4.88;1.50;;;;;;;0.74;100.00;99917.63;5037594;28;20067;-74
2024/01/15 03:59:17;;;;;;;6.13;1.02;;;;;;;0.67;100.00;99916.88;5052461;28;20040;-75
2024/01/15 04:02:03;;;;;;;3.63;0.88;;;;;;;0.62;100.00;99913.53;5033668;28;20033;-74
2024/01/15 04:04:49;;;;;;;6.07;1.00;;;;;;;0.59;100.00;99921.38;5051453;28;20186;-74
2024/01/15 04:07:35;;;;;;;2.30;0.95;;;;;;;0.56;100.00;99918.84;5047507;28;20661;-75
2024/01/15 04:10:21;;;;;;;2.83;0.90;;;;;;;0.53;100.00;99919.75;5050661;28;20171;-74
2024/01/15 04:13:06;;;;;;;2.15;0.80;;;;;;;0.51;100.00;99918.06;5050967;28;20040;-74
2024/01/15 04:15:52;;;;;;;0.75;0.75;;;;;;;0.45;100.00;99913.84;5050488;28;20039;-75
2024/01/15 04:18:38;;;;;;;4.15;0.90;;;;;;;0.40;100.00;99913.06;5033865;28;20044;-74
2024/01/15 04:21:24;;;;;;;3.75;1.05;;;;;;;0.34;100.00;99914.03;5049324;28;20032;-74
2024/01/15 04:24:09;;;;;;;4.60;1.05;;;;;;;0.29;100.00;99917.59;5050196;28;20059;-74
2024/01/15 04:26:55;;;;;;;2.70;1.00;;;;;;;0.22;100.00;99909.88;5050757;28;20169;-74
2024/01/15 04:29:44;;;;;;;5.80;1.25;;;;;;;0.18;100.00;99902.16;5049079;28;20064;-74
2024/01/15 04:32:30;;;;;;;10.00;1.33;;;;;;;0.12;100.00;99893.56;5049577;28;20044;-74
2024/01/15 04:35:16;;;;;;;4.95;1.00;;;;;;;0.10;100.00;99884.94;5047458;28;20037;-74
2024/01/15 04:38:01;;;;;;;6.47;1.08;;;;;;;0.09;100.00;99879.75;5047401;28;20065;-74
2024/01/15 04:40:47;;;;;;;5.22;1.55;;;;;;;0.09;100.00;99883.22;5045649;28;20648;-74
2024/01/15 04:43:33;;;;;;;3.00;1.13;;;;;;;0.09;100.00;99887.56;5049797;28;20123;-74
2024/01/15 04:46:19;;;;;;;9.88;1.33;;;;;;;0.10;100.00;99877.13;5050333;28;20098;-75
2024/01/15 04:49:04;;;;;;;6.35;1.05;;;;;;;0.08;100.00;99871.09;5034839;28;20040;-74
2024/01/15 04:51:50;;;;;;;6.53;1.38;;;;;;;0.05;100.00;99860.72;5049529;28;20059;-74
2024/01/15 04:54:36;;;;;;;3.17;1.08;;;;;;;0.04;100.00;99859.00;5048068;28;20032;-74
2024/01/15 04:57:22;;;;;;;3.97;1.10;;;;;;;0.02;100.00;99858.19;5049632;28;20081;-74
2024/01/15 05:00:08;;;;;;;10.07;1.38;;;;;;;0.01;100.00;99861.69;5047371;28;20071;-74
2024/01/15 05:02:54;;;;;;;8.88;1.65;;;;;;;-0.02;100.00;99854.78;5049089;28;20044;-74
2024/01/15 05:05:40;;;;;;;7.47;1.05;;;;;;;-0.01;100.00;99859.09;5044810;28;20037;-74
2024/01/15 05:08:25;;;;;;;9.60;1.35;;;;;;;-0.01;100.00;99858.22;5047750;28;20044;-74
2024/01/15 05:11:11;;;;;;;4.70;1.80;;;;;;;-0.05;100.00;99856.59;5046511;28;20044;-74
2024/01/15 05:13:57;;;;;;;6.40;1.38;;;;;;;-0.06;100.00;99865.28;5031688;28;20097;-74
2024/01/15 05:16:49;;;;;;;7.82;1.48;;;;;;;-0.06;100.00;99860.06;5046151;28;20044;-75
2024/01/15 05:19:35;;;;;;;8.18;1.33;;;;;;;-0.09;100.00;99858.38;5037055;28;20029;-75
2024/01/15 05:22:21;;;;;;;7.70;1.65;;;;;;;-0.08;100.00;99867.03;5049222;28;22032;-75
2024/01/15 05:25:06;;;;;;;5.45;1.40;;;;;;;-0.08;100.00;99864.41;5047494;28;20068;-74
2024/01/15 05:27:52;;;;;;;5.18;1.45;;;;;;;-0.08;100.00;99864.41;5048694;28;20048;-74
2024/01/15 05:30:38;;;;;;;8.57;1.60;;;;;;;-0.06;100.00;99852.25;5033051;28;20051;-75
2024/01/15 05:33:24;;;;;;;5.85;1.30;;;;;;;-0.04;100.00;99853.09;5033348;28;20032;-73
2024/01/15 05:36:09;;;;;;;4.15;1.23;;;;;;;-0.01;100.00;99850.41;5046339;28;20048;-74
2024/01/15 05:38:55;;;;;;;5.82;1.65;;;;;;;0.01;100.00;99853.88;5050122;28;20044;-74
2024/01/15 05:41:41;;;;;;;6.57;1.17;;;;;;;0.03;100.00;99840.81;5030766;28;20165;-74
2024/01/15 05:44:27;;;;;;;7.50;1.20;;;;;;;0.04;100.00;99843.41;5046783;28;20040;-74
2024/01/15 05:47:12;;;;;;;10.40;1.58;;;;;;;0.04;100.00;99842.56;5037186;28;20102;-75
2024/01/15 05:49:58;;;;;;;9.85;1.45;;;;;;;0.02;100.00;99826.94;5031360;28;20158;-73
2024/01/15 05:52:44;;;;;;;9.15;1.30;;;;;;;0.04;100.00;99835.59;5013991;28;20120;-75
2024/01/15 05:55:30;;;;;;;8.68;1.20;;;;;;;0.04;100.00;99827.78;5049738;28;20418;-74
2024/01/15 05:58:15;;;;;;;6.07;1.60;;;;;;;0.04;100.00;99830.38;5020859;28;20052;-74
2024/01/15 06:01:01;;;;;;;8.93;1.60;;;;;;;0.04;100.00;99832.97;5026580;28;20745;-74
2024/01/15 06:03:47;;;;;;;6.90;1.50;;;;;;;0.02;100.00;99829.56;5048486;28;20036;-74
2024/01/15 06:06:33;;;;;;;6.60;1.73;;;;;;;0.01;100.00;99821.78;5048112;28;21007;-74
2024/01/15 06:09:18;;;;;;;5.65;1.30;;;;;;;0.02;100.00;99829.56;5045940;28;20040;-74
2024/01/15 06:12:07;;;;;;;4.18;1.30;;;;;;;0.04;100.00;99847.75;5047816;28;20044;-73
2024/01/15 06:14:52;;;;;;;7.60;1.85;;;;;;;0.09;100.00;99856.31;5032435;28;20059;-73
2024/01/15 06:17:38;;;;;;;2.70;1.23;;;;;;;0.18;100.00;99865.72;5050145;28;20093;-71
2024/01/15 06:20:24;;;;;;;3.97;1.05;;;;;;;0.21;100.00;99850.06;5051422;28;20037;-71
2024/01/15 06:23:10;;;;;;;3.25;1.17;;;;;;;0.21;100.00;99847.44;5037979;28;20033;-71
2024/01/15 06:25:55;;;;;;;4.25;1.08;;;;;;;0.16;100.00;99844.06;5052008;28;20047;-72
2024/01/15 06:28:41;;;;;;;3.45;1.00;;;;;;;0.09;100.00;99840.69;5049277;28;20045;-72
2024/01/15 06:31:27;;;;;;;5.07;0.90;;;;;;;0.01;100.00;99837.38;5049068;28;20033;-70
2024/01/15 06:34:15;;;;;;;2.85;0.93;;;;;;;-0.06;100.00;99837.50;5049136;28;20048;-72
2024/01/15 06:37:01;;;;;;;8.57;1.20;;;;;;;-0.11;100.00;99835.88;5035013;28;20037;-72
2024/01/15 06:39:46;;;;;;;6.50;1.10;;;;;;;-0.16;100.00;99825.53;5047481;28;20058;-72
2024/01/15 06:42:32;;;;;;;3.95;1.00;;;;;;;-0.18;100.00;99822.09;5048222;28;20025;-71
2024/01/15 06:45:18;;;;;;;6.22;1.20;;;;;;;-0.20;100.00;99826.47;5047947;28;20040;-72
2024/01/15 06:48:04;;;;;;;5.35;0.90;;;;;;;-0.22;100.00;99828.25;5048449;28;20144;-72
2024/01/15 06:50:50;;;;;;;4.97;1.15;;;;;;;-0.23;100.00;99823.94;5048908;28;20678;-70
2024/01/15 06:53:35;;;;;;;5.10;1.30;;;;;;;-0.22;100.00;99830.84;5046281;28;20033;-71
2024/01/15 06:56:21;;;;;;;7.47;1.20;;;;;;;-0.24;100.00;99830.88;5050332;28;20036;-71
2024/01/15 06:59:07;;;;;;;6.95;1.52;;;;;;;-0.25;100.00;99818.75;5052924;28;21039;-72
2024/01/15 07:01:52;;;;;;;6.53;1.63;;;;;;;-0.26;100.00;99816.16;5054921;28;20139;-72
2024/01/15 07:04:38;;;;;;;8.05;2.00;;;;;;;-0.28;100.00;99821.38;5038542;28;20037;-71
2024/01/15 07:07:24;;;;;;;11.95;2.53;;;;;;;-0.32;100.00;99817.97;5044138;28;20152;-72
2024/01/15 07:10:11;;;;;;;7.82;2.45;;;;;;;-0.34;100.00;99818.88;5036939;28;20043;-73
2024/01/15 07:12:56;;;;;;;9.35;2.15;;;;;;;-0.36;100.00;99821.53;5054100;28;20051;-72
2024/01/15 07:15:42;;;;;;;5.68;1.50;;;;;;;-0.35;100.00;99814.56;5052345;28;20033;-72
2024/01/15 07:18:28;;;;;;;7.43;1.85;;;;;;;-0.30;100.00;99815.34;5044536;28;20037;-72
2024/01/15 07:21:14;;;;;;;7.25;2.72;;;;;;;-0.28;100.00;99826.59;5051533;28;20055;-72
2024/01/15 07:23:59;;;;;;;6.65;2.10;;;;;;;-0.25;100.00;99823.06;5053633;28;20102;-73
2024/01/15 07:26:46;;;;;;;5.03;2.40;;;;;;;-0.23;100.00;99823.94;5037149;28;20061;-73
2024/01/15 07:29:37;;;;;;;5.13;1.95;;;;;;;-0.20;100.00;99831.66;5031635;28;20033;-72
2024/01/15 07:32:22;;;;;;;5.88;1.05;;;;;;;-0.16;100.00;99830.75;5044104;28;20043;-72
2024/01/15 07:35:08;;;;;;;5.43;1.70;;;;;;;-0.13;100.00;99841.09;5057440;28;20509;-72
2024/01/15 07:37:54;;;;;;;8.05;1.20;;;;;;;-0.12;100.00;99831.56;5042630;28;20070;-72
2024/01/15 07:40:40;;;;;;;8.20;1.13;;;;;;;-0.10;100.00;99841.06;5056235;28;20053;-72
2024/01/15 07:43:27;;;;;;;6.80;1.50;;;;;;;-0.06;100.00;99839.25;5057859;28;20560;-72
2024/01/15 07:46:13;;;;;;;5.47;1.38;;;;;;;-0.02;100.00;99841.78;5058739;28;20040;-72
2024/01/15 07:48:59;;;;;;;4.50;1.33;;;;;;;0.03;100.00;99836.47;5056394;28;20122;-72
2024/01/15 07:51:44;;;;;;;9.25;1.92;;;;;;;0.03;100.00;99820.00;5042299;28;20048;-72
2024/01/15 07:54:31;;;;;;;4.95;1.00;;;;;;;-0.01;100.00;99820.06;5055935;28;20049;-72
2024/01/15 07:57:17;;;;;;;4.20;1.20;;;;;;;-0.07;100.00;99819.28;5053610;28;20047;-72
2024/01/15 08:00:05;;;;;;;4.57;1.20;;;;;;;-0.12;100.00;99821.16;5053856;28;20449;-72
2024/01/15 08:02:51;;;;;;;3.63;1.00;;;;;;;-0.19;100.00;99818.66;5058463;28;20154;-72
2024/01/15 08:05:36;;;;;;;2.47;1.13;;;;;;;-0.25;100.00;99821.34;5053982;28;20063;-72
2024/01/15 08:08:23;;;;;;;5.10;1.35;;;;;;;-0.28;100.00;99814.44;5053474;28;20032;-71
2024/01/15 08:11:08;;;;;;;4.22;1.08;;;;;;;-0.31;100.00;99818.84;5043424;28;20132;-72
2024/01/15 08:13:54;;;;;;;1.38;0.80;;;;;;;-0.34;100.00;99826.69;5054252;28;20048;-72
2024/01/15 08:16:40;;;;;;;4.25;1.02;;;;;;;-0.37;100.00;99819.81;5054134;28;20123;-72
2024/01/15 08:19:26;;;;;;;4.45;1.00;;;;;;;-0.40;100.00;99822.47;5043606;28;20037;-72
2024/01/15 08:22:11;;;;;;;2.40;1.10;;;;;;;-0.42;100.00;99819.88;5053692;28;20120;-72
2024/01/15 08:24:57;;;;;;;3.63;1.20;;;;;;;-0.42;100.00;99825.06;5054557;28;20092;-70
2024/01/15 08:27:43;;;;;;;3.38;1.60;;;;;;;-0.36;100.00;99823.25;5054306;28;20399;-73
2024/01/15 08:30:29;;;;;;;7.40;1.60;;;;;;;-0.33;100.00;99826.66;5054999;28;21895;-72
2024/01/15 08:33:14;;;;;;;3.95;1.67;;;;;;;-0.32;100.00;99812.78;5038991;28;20049;-72
2024/01/15 08:36:00;;;;;;;3.83;1.38;;;;;;;-0.28;100.00;99829.19;5054134;28;20106;-72
2024/01/15 08:38:46;;;;;;;4.20;1.73;;;;;;;-0.24;100.00;99837.78;5040630;28;20130;-73
2024/01/15 08:41:36;;;;;;;5.97;2.83;;;;;;;-0.21;100.00;99830.81;5053038;28;20028;-73
2024/01/15 08:44:22;;;;;;;10.80;2.40;;;;;;;-0.18;100.00;99828.16;5045612;28;20065;-72
2024/01/15 08:47:08;;;;;;;6.18;1.52;;;;;;;-0.15;100.00;99827.25;5056094;28;20048;-72
2024/01/15 08:49:56;;;;;;;3.00;1.15;;;;;;;-0.11;100.00;99825.47;5055905;28;20039;-72
2024/01/15 08:52:43;;;;;;;1.00;0.75;;;;;;;-0.06;100.00;99821.03;5054435;28;20040;-73
2024/01/15 08:55:28;;;;;;;4.18;1.10;;;;;;;0.01;100.00;99821.78;5056370;28;20434;-72
2024/01/15 08:58:14;;;;;;;6.55;1.40;;;;;;;0.06;100.00;99805.16;5052023;28;20499;-72
2024/01/15 09:01:00;;;;;;;1.95;1.13;;;;;;;0.13;100.00;99817.19;5053410;28;20170;-72
2024/01/15 09:03:48;;;;;;;3.33;1.20;;;;;;;0.19;100.00;99816.22;5053599;28;20051;-72
2024/01/15 09:06:34;;;;;;;4.95;1.70;;;;;;;0.24;100.00;99818.75;5037483;28;21599;-73
2024/01/15 09:09:20;;;;;;;7.20;1.45;;;;;;;0.28;100.00;99804.78;5040965;28;20101;-72
2024/01/15 09:12:06;;;;;;;2.50;1.30;;;;;;;0.31;100.00;99803.84;5052027;28;20052;-72
2024/01/15 09:14:53;;;;;;;6.95;1.30;;;;;;;0.35;100.00;99819.41;5052981;28;20101;-72
2024/01/15 09:17:39;;;;;;;4.93;1.00;;;;;;;0.43;100.00;99829.66;5051785;28;20040;-71
2024/01/15 09:20:27;;;;;;;4.45;1.15;;;;;;;0.47;100.00;99825.22;5039305;28;20044;-71
2024/01/15 09:23:13;;;;;;;1.55;1.10;;;;;;;0.45;100.00;99822.69;5050273;28;20032;-72
2024/01/15 09:25:58;;;;;;;3.70;1.08;;;;;;;0.46;100.00;99820.91;5053724;28;20120;-71
2024/01/15 09:28:44;;;;;;;6.03;1.42;;;;;;;0.42;100.00;99817.50;5051804;28;20032;-72
2024/01/15 09:31:30;;;;;;;3.38;1.23;;;;;;;0.43;100.00;99828.81;5055247;28;20053;-72
2024/01/15 09:34:17;;;;;;;5.40;1.20;;;;;;;0.48;100.00;99833.03;5052363;28;20047;-72
2024/01/15 09:37:03;;;;;;;3.30;1.10;;;;;;;0.54;100.00;99830.31;5049563;28;20032;-72
2024/01/15 09:39:49;;;;;;;2.42;0.73;;;;;;;0.57;100.00;99825.91;5051488;28;20040;-71
2024/01/15 09:42:36;;;;;;;1.20;0.52;;;;;;;0.55;100.00;99820.75;5048707;28;20036;-71
2024/01/15 09:45:22;;;;;;;2.30;0.95;;;;;;;0.50;100.00;99812.16;5051693;28;20033;-72
2024/01/15 09:48:13;;;;;;;1.48;0.70;;;;;;;0.46;100.00;99819.19;5055008;28;20032;-72
2024/01/15 09:51:01;;;;;;;2.85;0.80;;;;;;;0.48;100.00;99817.41;5037465;28;21633;-72
2024/01/15 09:53:47;;;;;;;0.73;0.70;;;;;;;0.54;100.00;99832.03;5034183;28;20037;-72
2024/01/15 09:56:33;;;;;;;6.72;1.10;;;;;;;0.65;100.00;99832.69;5036498;28;20999;-72
2024/01/15 09:59:20;;;;;;;4.55;1.02;;;;;;;0.81;100.00;99840.16;5051128;28;20113;-70
2024/01/15 10:02:07;;;;;;;1.27;1.17;;;;;;;0.90;100.00;99841.72;5027778;28;20039;-72
2024/01/15 10:04:55;;;;;;;5.07;0.90;;;;;;;0.93;100.00;99859.94;5034130;28;20052;-72
2024/01/15 10:07:42;;;;;;;1.95;0.60;;;;;;;0.94;100.00;99862.47;5051138;28;20075;-71
2024/01/15 10:10:27;;;;;;;1.42;0.60;;;;;;;0.96;100.00;99851.19;5038375;28;20137;-72
2024/01/15 10:13:15;;;;;;;0.70;0.60;;;;;;;0.96;100.00;99878.09;5053421;28;20052;-72
2024/01/15 10:16:04;;;;;;;0.77;0.70;;;;;;;0.98;100.00;99858.06;5028403;28;20036;-72
2024/01/15 10:18:49;;;;;;;3.92;0.70;;;;;;;0.94;100.00;99872.91;5042198;28;21157;-72
2024/01/15 10:21:36;;;;;;;2.75;0.98;;;;;;;0.84;100.00;99884.44;5053085;28;20087;-72
2024/01/15 10:24:22;;;;;;;2.30;1.00;;;;;;;0.72;100.00;99872.50;5038616;28;20503;-72
2024/01/15 10:27:10;;;;;;;4.22;0.68;;;;;;;0.64;100.00;99880.47;5040252;28;20927;-72
2024/01/15 10:29:59;;;;;;;1.00;0.50;;;;;;;0.50;100.00;99885.09;5055125;28;20341;-72
2024/01/15 10:33:01;;;;;;;0.50;0.50;;;;;;;0.39;100.00;99860.09;5054600;28;20056;-70
2024/01/15 10:35:46;;;;;;;0.60;0.60;;;;;;;0.33;100.00;99873.22;5054940;28;20376;-71
2024/01/15 10:38:32;;;;;;;3.40;0.70;;;;;;;0.32;100.00;99868.91;5053650;28;20029;-72
2024/01/15 10:41:18;;;;;;;2.80;0.80;;;;;;;0.33;100.00;99865.41;5037459;28;20045;-72
2024/01/15 10:44:04;;;;;;;1.70;0.63;;;;;;;0.37;100.00;99858.41;5051674;28;20047;-70
2024/01/15 10:46:50;;;;;;;1.20;0.90;;;;;;;0.41;100.00;99847.06;5051373;28;20392;-72
2024/01/15 10:49:36;;;;;;;4.07;1.08;;;;;;;0.45;100.00;99843.53;5051921;28;20025;-73
2024/01/15 10:52:22;;;;;;;4.35;0.80;;;;;;;0.49;100.00;99849.53;5046671;28;20059;-72
2024/01/15 10:55:09;;;;;;;3.40;0.80;;;;;;;0.50;100.00;99841.66;5023433;28;20464;-72
2024/01/15 10:57:56;;;;;;;2.88;0.90;;;;;;;0.53;100.00;99861.56;5020802;28;21067;-73
2024/01/15 11:00:43;;;;;;;2.25;0.77;;;;;;;0.58;100.00;99857.16;5030494;28;20041;-69
2024/01/15 11:03:28;;;;;;;3.55;0.98;;;;;;;0.68;100.00;99855.22;5032476;28;20080;-72
2024/01/15 11:06:19;;;;;;;4.57;1.58;;;;;;;0.84;100.00;99866.19;5050738;28;20029;-69
2024/01/15 11:09:07;;;;;;;4.95;1.00;;;;;;;0.96;100.00;99856.41;5053870;28;20525;-71
2024/01/15 11:12:07;;;;;;;1.40;0.80;;;;;;;1.02;100.00;99858.84;5055179;28;20044;-70
2024/01/15 11:15:04;;;;;;;3.35;1.10;;;;;;;1.02;100.00;99861.44;5053627;28;20047;-70
2024/01/15 11:18:01;;;;;;;3.72;1.02;;;;;;;0.98;100.00;99888.50;5058529;28;20037;-70
2024/01/15 11:21:18;;;;;;;1.88;1.20;;;;;;;0.80;100.00;99875.81;5041831;28;20036;-72
2024/01/15 11:24:06;;;;;;;2.67;1.02;;;;;;;0.67;100.00;99892.59;5055056;28;20048;-72
2024/01/15 11:26:54;;;;;;;7.78;1.83;;;;;;;0.55;100.00;99893.69;5052133;28;20143;-71
2024/01/15 11:29:40;;;;;;;7.68;1.13;;;;;;;0.42;100.00;99913.88;5053023;28;20033;-70
2024/01/15 11:32:33;;;;;;;1.75;1.25;;;;;;;0.25;100.00;99929.81;5056440;28;20116;-71
2024/01/15 11:35:19;;;;;;;5.35;0.93;;;;;;;0.03;100.00;99921.50;5041280;28;20103;-72
2024/01/15 11:38:06;;;;;;;1.17;0.77;;;;;;;-0.12;100.00;99930.44;5057550;28;20511;-71
2024/01/15 11:40:52;;;;;;;2.72;0.90;;;;;;;-0.26;100.00;99934.09;5042574;28;20468;-72
2024/01/15 11:43:38;;;;;;;1.40;0.70;;;;;;;-0.39;100.00;99928.22;5049425;28;20025;-72
2024/01/15 11:46:26;;;;;;;1.13;0.85;;;;;;;-0.43;100.00;99930.00;5048344;28;20048;-71
2024/01/15 11:49:13;;;;;;;1.85;0.90;;;;;;;-0.43;100.00;99932.59;5031288;28;20172;-71
2024/01/15 11:52:02;;;;;;;2.85;0.90;;;;;;;-0.42;100.00;99934.31;5033135;28;20064;-71
2024/01/15 11:55:02;;;;;;;2.33;1.17;;;;;;;-0.42;100.00;99926.50;5037973;28;20037;-71
2024/01/15 11:57:54;;;;;;;5.00;1.30;;;;;;;-0.39;100.00;99929.97;5032327;28;20060;-71
2024/01/15 12:00:44;;;;;;;3.38;1.08;;;;;;;-0.36;100.00;99916.91;5051477;28;20102;-72
2024/01/15 12:03:33;;;;;;;8.00;1.30;;;;;;;-0.32;100.00;99926.41;5051020;28;20048;-72
2024/01/15 12:06:19;;;;;;;3.78;1.73;;;;;;;-0.28;100.00;99930.66;5050532;28;20447;-72
2024/01/15 12:09:08;;;;;;;8.55;1.63;;;;;;;-0.25;100.00;99929.75;5051552;28;20036;-72
2024/01/15 12:12:07;;;;;;;7.55;1.67;;;;;;;-0.21;100.00;99927.06;5038562;28;20045;-71
2024/01/15 12:14:53;;;;;;;5.03;1.35;;;;;;;-0.13;100.00;99928.72;5043066;28;20032;-71
2024/01/15 12:17:39;;;;;;;2.65;1.10;;;;;;;-0.05;100.00;99927.69;5042786;28;20036;-71
2024/01/15 12:20:26;;;;;;;4.80;1.65;;;;;;;0.02;100.00;99933.66;5036144;28;21041;-71
2024/01/15 12:23:13;;;;;;;5.10;1.40;;;;;;;0.06;100.00;99932.72;5051870;28;20127;-72
2024/01/15 12:25:59;;;;;;;2.85;1.00;;;;;;;0.10;100.00;99926.59;5044533;28;20060;-71
2024/01/15 12:28:44;;;;;;;5.57;1.38;;;;;;;0.12;100.00;99927.41;5050011;28;20044;-71
2024/01/15 12:31:30;;;;;;;7.25;1.33;;;;;;;0.19;100.00;99930.78;5053100;28;20490;-71
2024/01/15 12:34:17;;;;;;;4.50;1.00;;;;;;;0.25;100.00;99925.47;5049845;28;20102;-71
2024/01/15 12:37:03;;;;;;;3.65;0.98;;;;;;;0.30;100.00;99920.19;5025384;28;20117;-71
2024/01/15 12:39:49;;;;;;;3.83;1.05;;;;;;;0.34;100.00;99928.78;5051693;28;20752;-71
2024/01/15 12:42:39;;;;;;;2.70;1.10;;;;;;;0.37;100.00;99937.41;5051353;28;20495;-70
2024/01/15 12:45:25;;;;;;;7.38;1.40;;;;;;;0.42;100.00;99942.53;5050207;28;20044;-71
2024/01/15 12:48:13;;;;;;;4.70;1.17;;;;;;;0.45;100.00;99945.09;5053935;28;20075;-70
2024/01/15 12:50:59;;;;;;;6.68;1.35;;;;;;;0.49;100.00;99959.75;5054966;28;20415;-71
2024/01/15 12:53:44;;;;;;;4.55;1.52;;;;;;;0.53;100.00;99956.22;5043891;28;20033;-70
2024/01/15 12:56:30;;;;;;;3.13;1.20;;;;;;;0.59;100.00;99955.25;5052114;28;20274;-71
2024/01/15 12:59:17;;;;;;;9.95;1.58;;;;;;;0.65;100.00;99969.94;5038382;28;20044;-71
2024/01/15 13:02:03;;;;;;;5.00;1.20;;;;;;;0.69;100.00;99962.91;5053140;28;20029;-72